createdAt,value
2024-05-09T00:01:56.141Z,4.80
2024-05-09T00:04:59.034Z,4.60
2024-05-09T00:08:01.779Z,4.50
2024-05-09T00:11:04.390Z,5.07
2024-05-09T00:14:06.830Z,4.70
2024-05-09T00:17:09.268Z,4.87
2024-05-09T00:20:17.865Z,4.15
2024-05-09T00:23:26.416Z,4.90
2024-05-09T00:26:28.684Z,5.80
2024-05-09T00:29:34.461Z,6.33
2024-05-09T00:32:36.907Z,5.25
2024-05-09T00:35:39.929Z,4.40
2024-05-09T00:38:42.324Z,4.30
2024-05-09T00:41:44.581Z,4.22
2024-05-09T00:44:46.838Z,4.68
2024-05-09T00:47:49.375Z,4.28
2024-05-09T00:50:54.161Z,4.88
2024-05-09T00:53:57.074Z,5.85
2024-05-09T00:56:59.517Z,5.78
2024-05-09T01:00:06.101Z,7.07
2024-05-09T01:03:12.892Z,6.30
2024-05-09T01:06:16.503Z,6.25
2024-05-09T01:09:18.873Z,5.67
2024-05-09T01:12:21.177Z,5.53
2024-05-09T01:15:23.859Z,7.60
2024-05-09T01:18:26.653Z,7.00
2024-05-09T01:21:29.028Z,7.07
2024-05-09T01:24:31.282Z,7.15
2024-05-09T01:27:33.775Z,6.83
2024-05-09T01:30:37.535Z,6.20
2024-05-09T01:33:40.562Z,6.40
2024-05-09T01:36:42.857Z,5.95
2024-05-09T01:39:45.268Z,5.65
2024-05-09T01:42:47.806Z,6.05
2024-05-09T01:45:50.022Z,5.82
2024-05-09T01:48:52.560Z,5.80
2024-05-09T01:51:54.813Z,6.28
2024-05-09T01:54:57.078Z,6.13
2024-05-09T01:57:59.244Z,5.67
2024-05-09T02:01:02.528Z,6.53
2024-05-09T02:04:04.935Z,6.47
2024-05-09T02:07:07.298Z,6.63
2024-05-09T02:10:16.197Z,6.33
2024-05-09T02:13:22.824Z,5.55
2024-05-09T02:16:25.075Z,4.72
2024-05-09T02:19:27.499Z,4.78
2024-05-09T02:22:29.769Z,4.78
2024-05-09T02:25:32.219Z,4.45
2024-05-09T02:28:34.580Z,4.68
2024-05-09T02:31:36.770Z,5.03
2024-05-09T02:34:39.067Z,5.60
2024-05-09T02:37:41.361Z,5.03
2024-05-09T02:40:43.611Z,5.50
2024-05-09T02:43:45.851Z,5.22
2024-05-09T02:46:48.122Z,5.75
2024-05-09T02:49:50.393Z,5.68
2024-05-09T02:52:52.608Z,5.30
2024-05-09T02:55:55.115Z,6.13
2024-05-09T02:58:57.448Z,5.30
2024-05-09T03:01:59.860Z,5.47
2024-05-09T03:05:02.132Z,5.70
2024-05-09T03:08:04.911Z,5.82
2024-05-09T03:11:07.537Z,5.63
2024-05-09T03:14:09.911Z,5.63
2024-05-09T03:17:12.442Z,6.63
2024-05-09T03:20:23.182Z,6.25
2024-05-09T03:23:26.740Z,5.60
2024-05-09T03:30:31.151Z,5.72
2024-05-09T03:33:42.653Z,5.43
2024-05-09T03:36:45.626Z,6.25
2024-05-09T03:39:47.890Z,5.55
2024-05-09T03:42:50.355Z,5.45
2024-05-09T03:45:52.570Z,5.80
2024-05-09T03:48:54.937Z,5.88
2024-05-09T03:51:57.274Z,5.93
2024-05-09T03:54:59.591Z,5.43
2024-05-09T03:58:01.914Z,5.10
2024-05-09T04:01:05.563Z,4.90
2024-05-09T04:04:09.358Z,5.15
2024-05-09T04:07:11.785Z,5.65
2024-05-09T04:10:23.659Z,4.93
2024-05-09T04:13:30.026Z,4.75
2024-05-09T04:16:32.323Z,5.15
2024-05-09T04:19:34.583Z,5.70
2024-05-09T04:22:36.825Z,5.35
2024-05-09T04:25:42.006Z,5.20
2024-05-09T04:28:44.327Z,5.38
2024-05-09T04:31:46.572Z,4.90
2024-05-09T04:34:48.798Z,5.03
2024-05-09T04:37:51.056Z,5.60
2024-05-09T04:40:53.404Z,6.20
2024-05-09T04:43:55.808Z,6.40
2024-05-09T04:46:58.105Z,6.47
2024-05-09T04:50:00.687Z,5.63
2024-05-09T04:53:06.213Z,5.60
2024-05-09T04:56:12.309Z,4.97
2024-05-09T04:59:15.749Z,5.53
2024-05-09T05:02:18.600Z,5.55
2024-05-09T05:05:21.413Z,5.85
2024-05-09T05:08:24.871Z,5.43
2024-05-09T05:11:28.969Z,5.28
2024-05-09T05:14:32.045Z,4.70
2024-05-09T05:17:35.217Z,5.18
2024-05-09T05:20:39.422Z,5.15
2024-05-09T05:23:42.297Z,5.35
2024-05-09T05:26:44.897Z,4.57
2024-05-09T05:29:47.497Z,5.93
2024-05-09T05:32:49.991Z,5.10
2024-05-09T05:35:52.361Z,5.68
2024-05-09T05:38:54.694Z,4.88
2024-05-09T05:41:56.872Z,5.23
2024-05-09T05:44:59.052Z,5.30
2024-05-09T05:48:04.224Z,4.97
2024-05-09T05:51:07.810Z,5.40
2024-05-09T05:54:10.023Z,5.22
2024-05-09T05:57:13.689Z,5.90
2024-05-09T06:00:25.950Z,4.72
2024-05-09T06:03:32.827Z,4.50
2024-05-09T06:06:35.225Z,4.13
2024-05-09T06:09:38.280Z,4.75
2024-05-09T06:12:40.700Z,4.40
2024-05-09T06:15:43.772Z,4.10
2024-05-09T06:18:47.029Z,4.38
2024-05-09T06:21:49.550Z,4.32
2024-05-09T06:24:52.224Z,3.93
2024-05-09T06:27:54.818Z,4.07
2024-05-09T06:30:57.019Z,4.20
2024-05-09T06:33:59.572Z,3.93
2024-05-09T06:37:01.863Z,4.60
2024-05-09T06:40:07.231Z,3.72
2024-05-09T06:43:13.681Z,3.67
2024-05-09T06:46:16.046Z,3.55
2024-05-09T06:49:18.434Z,4.00
2024-05-09T06:52:20.759Z,3.67
2024-05-09T06:55:23.018Z,3.45
2024-05-09T06:58:25.203Z,3.93
2024-05-09T07:01:27.448Z,3.60
2024-05-09T07:04:29.957Z,3.63
2024-05-09T07:07:32.181Z,3.78
2024-05-09T07:10:36.273Z,3.40
2024-05-09T07:13:39.264Z,3.33
2024-05-09T07:16:41.399Z,3.13
2024-05-09T07:19:43.743Z,3.65
2024-05-09T07:22:45.986Z,2.95
2024-05-09T07:25:48.333Z,2.70
2024-05-09T07:28:50.920Z,2.80
2024-05-09T07:31:53.389Z,3.17
2024-05-09T07:34:55.708Z,2.20
2024-05-09T07:37:58.042Z,2.95
2024-05-09T07:41:00.479Z,2.70
2024-05-09T07:44:02.866Z,2.60
2024-05-09T07:48:14.394Z,2.70
2024-05-09T07:53:40.961Z,2.72
2024-05-09T07:56:47.225Z,2.70
2024-05-09T07:59:49.458Z,2.53
2024-05-09T08:02:51.634Z,2.43
2024-05-09T08:05:54.591Z,2.30
2024-05-09T08:08:59.145Z,2.30
2024-05-09T08:12:03.008Z,2.28
2024-05-09T08:15:05.810Z,1.75
2024-05-09T08:18:13.018Z,2.22
2024-05-09T08:21:15.304Z,1.92
2024-05-09T08:24:17.627Z,1.48
2024-05-09T08:27:19.831Z,1.58
2024-05-09T08:30:29.616Z,1.85
2024-05-09T08:33:37.929Z,1.65
2024-05-09T08:36:40.890Z,1.63
2024-05-09T08:39:43.696Z,1.60
2024-05-09T08:42:49.927Z,1.67
2024-05-09T08:45:52.408Z,1.75
2024-05-09T08:48:57.023Z,1.95
2024-05-09T08:51:59.419Z,1.80
2024-05-09T08:55:01.979Z,1.80
2024-05-09T08:58:05.980Z,1.75
2024-05-09T09:01:08.814Z,1.40
2024-05-09T09:07:15.229Z,1.70
2024-05-09T09:10:28.912Z,1.60
2024-05-09T09:13:33.946Z,1.60
2024-05-09T09:16:37.615Z,1.60
2024-05-09T09:19:40.546Z,1.60
2024-05-09T09:22:43.968Z,1.58
2024-05-09T09:25:46.219Z,1.40
2024-05-09T09:28:48.497Z,1.48
2024-05-09T09:32:00.445Z,1.67
2024-05-09T09:35:02.708Z,1.58
2024-05-09T09:38:06.947Z,1.30
2024-05-09T09:41:13.105Z,1.35
2024-05-09T09:44:17.583Z,1.42
2024-05-09T09:47:20.355Z,1.67
2024-05-09T09:50:31.333Z,1.70
2024-05-09T09:53:38.455Z,2.00
2024-05-09T09:56:41.913Z,1.50
2024-05-09T09:59:47.155Z,1.92
2024-05-09T10:02:49.501Z,11.27
2024-05-09T10:05:52.724Z,1.63
2024-05-09T10:08:55.623Z,5.32
2024-05-09T10:12:09.815Z,17.55
2024-05-09T10:15:12.297Z,4.35
2024-05-09T10:18:15.693Z,1.27
2024-05-09T10:21:21.533Z,1.52
2024-05-09T10:24:23.823Z,1.45
2024-05-09T10:27:30.436Z,1.77
2024-05-09T10:30:36.170Z,1.95
2024-05-09T10:33:51.602Z,1.52
2024-05-09T10:36:55.225Z,1.33
2024-05-09T10:39:58.490Z,1.40
2024-05-09T10:43:04.532Z,1.40
2024-05-09T10:46:09.972Z,1.63
2024-05-09T10:49:15.279Z,1.88
2024-05-09T10:52:24.489Z,1.30
2024-05-09T10:55:27.581Z,1.45
2024-05-09T10:58:29.900Z,1.48
2024-05-09T11:01:32.432Z,1.60
2024-05-09T11:07:37.399Z,1.83
2024-05-09T11:10:40.560Z,1.52
2024-05-09T11:13:42.888Z,1.95
2024-05-09T11:16:45.221Z,1.58
2024-05-09T11:19:47.579Z,1.98
2024-05-09T11:22:49.786Z,1.30
2024-05-09T11:25:56.825Z,1.25
2024-05-09T11:28:59.007Z,1.40
2024-05-09T11:32:01.372Z,1.20
2024-05-09T11:35:03.572Z,1.35
2024-05-09T11:38:06.101Z,1.33
2024-05-09T11:44:10.475Z,1.80
2024-05-09T11:47:12.682Z,1.00
2024-05-09T11:50:22.551Z,1.30
2024-05-09T11:53:31.735Z,1.10
2024-05-09T11:56:34.112Z,1.10
2024-05-09T11:59:36.413Z,1.23
2024-05-09T12:02:38.657Z,1.08
2024-05-09T12:05:41.337Z,1.23
2024-05-09T12:08:44.090Z,1.60
2024-05-09T12:11:46.403Z,1.52
2024-05-09T12:14:48.690Z,1.80
2024-05-09T12:17:51.198Z,1.27
2024-05-09T12:20:53.526Z,1.23
2024-05-09T12:23:55.752Z,1.67
2024-05-09T12:26:58.038Z,1.90
2024-05-09T12:30:00.252Z,1.33
2024-05-09T12:33:02.623Z,1.25
2024-05-09T12:36:05.043Z,1.35
2024-05-09T12:39:09.232Z,1.30
2024-05-09T12:42:14.534Z,1.20
2024-05-09T12:45:21.684Z,1.02
2024-05-09T12:48:24.180Z,1.45
2024-05-09T12:51:26.507Z,1.58
2024-05-09T12:54:28.872Z,1.30
2024-05-09T13:00:34.362Z,1.90
2024-05-09T13:03:37.143Z,1.60
2024-05-09T13:06:39.720Z,1.40
2024-05-09T13:09:42.174Z,1.38
2024-05-09T13:15:46.664Z,1.65
2024-05-09T13:18:49.226Z,1.48
2024-05-09T13:21:51.643Z,1.60
2024-05-09T13:27:57.388Z,1.38
2024-05-09T13:30:59.877Z,1.58
2024-05-09T13:34:02.464Z,1.60
2024-05-09T13:40:12.007Z,1.60
2024-05-09T13:43:17.605Z,1.40
2024-05-09T13:46:20.428Z,1.67
2024-05-09T13:52:26.287Z,1.67
2024-05-09T13:55:28.478Z,1.50
2024-05-09T13:58:30.709Z,1.30
2024-05-09T14:01:33.008Z,1.50
2024-05-09T14:07:37.687Z,1.80
2024-05-09T14:10:44.457Z,1.55
2024-05-09T14:13:47.394Z,1.40
2024-05-09T14:19:52.111Z,1.67
2024-05-09T14:22:54.548Z,1.42
2024-05-09T14:25:56.973Z,1.65
2024-05-09T14:32:02.867Z,1.60
2024-05-09T14:35:05.263Z,1.50
2024-05-09T14:38:09.146Z,1.50
2024-05-09T14:41:13.403Z,1.40
2024-05-09T14:44:15.615Z,1.50
2024-05-09T14:47:18.526Z,1.30
2024-05-09T14:50:28.054Z,1.27
2024-05-09T14:53:37.090Z,1.48
2024-05-09T14:56:39.297Z,1.40
2024-05-09T14:59:41.517Z,1.90
2024-05-09T15:02:43.733Z,1.67
2024-05-09T15:08:56.885Z,1.60
2024-05-09T15:11:59.150Z,1.40
2024-05-09T15:15:01.326Z,1.35
2024-05-09T15:18:05.731Z,1.60
2024-05-09T15:21:08.310Z,1.83
2024-05-09T15:24:10.515Z,1.45
2024-05-09T15:27:13.092Z,1.80
2024-05-09T15:33:23.008Z,1.20
2024-05-09T15:36:25.538Z,1.40
2024-05-09T15:42:43.032Z,1.60
2024-05-09T15:48:53.677Z,1.60
2024-05-09T15:51:56.550Z,1.48
2024-05-09T15:54:58.951Z,1.50
2024-05-09T15:58:02.648Z,2.03
2024-05-09T16:01:05.540Z,1.55
2024-05-09T16:07:12.504Z,1.80
2024-05-09T16:10:20.258Z,1.63
2024-05-09T16:13:28.113Z,1.95
2024-05-09T16:16:30.361Z,2.00
2024-05-09T16:19:32.970Z,2.42
2024-05-09T16:22:37.870Z,2.40
2024-05-09T16:25:45.352Z,1.60
2024-05-09T16:28:48.942Z,1.60
2024-05-09T16:31:54.922Z,1.70
2024-05-09T16:34:57.140Z,1.60
2024-05-09T16:37:59.488Z,1.35
2024-05-09T16:41:01.806Z,1.58
2024-05-09T16:44:04.525Z,1.42
2024-05-09T16:50:10.802Z,1.55
2024-05-09T16:53:19.344Z,1.35
2024-05-09T16:56:23.807Z,1.52
2024-05-09T16:59:26.246Z,1.67
2024-05-09T17:02:28.784Z,1.42
2024-05-09T17:05:31.297Z,1.70
2024-05-09T17:08:33.637Z,1.30
2024-05-09T17:11:36.072Z,1.20
2024-05-09T17:14:38.339Z,1.45
2024-05-09T17:17:40.893Z,1.50
2024-05-09T17:20:43.174Z,1.33
2024-05-09T17:23:45.517Z,1.50
2024-05-09T17:26:47.868Z,1.52
2024-05-09T17:29:50.926Z,1.50
2024-05-09T17:32:53.198Z,1.70
2024-05-09T17:35:55.535Z,1.50
2024-05-09T17:38:57.775Z,1.60
2024-05-09T17:42:00.023Z,1.58
2024-05-09T17:45:02.208Z,1.88
2024-05-09T17:48:05.045Z,1.75
2024-05-09T17:51:07.372Z,1.60
2024-05-09T17:54:09.633Z,2.10
2024-05-09T17:57:11.958Z,2.00
2024-05-09T18:00:17.467Z,1.95
2024-05-09T18:03:23.832Z,1.90
2024-05-09T18:06:26.214Z,2.17
2024-05-09T18:09:28.429Z,2.80
2024-05-09T18:12:30.672Z,2.50
2024-05-09T18:15:33.351Z,2.95
2024-05-09T18:18:36.152Z,2.38
2024-05-09T18:21:38.665Z,1.60
2024-05-09T18:24:41.221Z,1.52
2024-05-09T18:27:43.489Z,2.30
2024-05-09T18:30:45.867Z,2.20
2024-05-09T18:33:48.409Z,2.20
2024-05-09T18:36:50.868Z,2.20
2024-05-09T18:39:53.320Z,2.30
2024-05-09T18:42:55.692Z,2.47
2024-05-09T18:45:58.616Z,2.25
2024-05-09T18:49:01.246Z,3.17
2024-05-09T18:52:03.627Z,4.22
2024-05-09T18:55:06.628Z,4.32
2024-05-09T19:01:11.687Z,2.80
2024-05-09T19:07:21.887Z,2.95
2024-05-09T19:10:28.822Z,4.22
2024-05-09T19:13:35.585Z,4.03
2024-05-09T19:16:37.908Z,5.57
2024-05-09T19:19:40.355Z,5.50
2024-05-09T19:22:42.600Z,6.57
2024-05-09T19:25:44.792Z,3.53
2024-05-09T19:28:47.021Z,4.63
2024-05-09T19:31:49.636Z,6.30
2024-05-09T19:34:52.240Z,6.43
2024-05-09T19:37:54.839Z,3.90
2024-05-09T19:40:58.149Z,3.17
2024-05-09T19:44:02.049Z,3.47
2024-05-09T19:47:04.694Z,1.92
2024-05-09T19:50:13.881Z,3.55
2024-05-09T19:53:19.129Z,2.60
2024-05-09T19:56:24.409Z,3.03
2024-05-09T19:59:28.821Z,2.30
2024-05-09T20:02:34.362Z,3.33
2024-05-09T20:05:37.662Z,3.05
2024-05-09T20:08:40.543Z,6.22
2024-05-09T20:11:42.864Z,4.33
2024-05-09T20:14:45.159Z,3.80
2024-05-09T20:17:47.754Z,4.05
2024-05-09T20:20:53.380Z,5.35
2024-05-09T20:23:56.386Z,4.32
2024-05-09T20:26:58.683Z,4.63
2024-05-09T20:30:00.949Z,4.13
2024-05-09T20:33:05.024Z,3.53
2024-05-09T20:36:08.479Z,5.78
2024-05-09T20:39:10.615Z,3.83
2024-05-09T20:42:13.183Z,3.00
2024-05-09T20:45:15.586Z,2.72
2024-05-09T20:48:17.974Z,3.17
2024-05-09T20:51:20.233Z,2.97
2024-05-09T20:54:22.631Z,2.80
2024-05-09T20:57:25.078Z,2.78
2024-05-09T21:00:35.197Z,5.20
2024-05-09T21:03:42.291Z,2.97
2024-05-09T21:06:44.623Z,6.63
2024-05-09T21:09:47.816Z,3.23
2024-05-09T21:12:50.137Z,3.95
2024-05-09T21:15:52.344Z,2.57
2024-05-09T21:18:58.594Z,2.50
2024-05-09T21:22:00.818Z,2.90
2024-05-09T21:25:03.009Z,3.03
2024-05-09T21:28:05.755Z,10.47
2024-05-09T21:31:09.271Z,3.65
2024-05-09T21:34:11.873Z,5.63
2024-05-09T21:37:14.662Z,5.60
2024-05-09T21:40:27.026Z,5.15
2024-05-09T21:43:35.721Z,5.50
2024-05-09T21:46:37.996Z,3.20
2024-05-09T21:49:43.123Z,4.00
2024-05-09T21:52:45.396Z,3.47
2024-05-09T21:55:47.838Z,3.50
2024-05-09T21:58:50.174Z,2.90
2024-05-09T22:01:52.430Z,2.87
2024-05-09T22:04:54.749Z,3.27
2024-05-09T22:07:57.287Z,3.03
2024-05-09T22:10:59.904Z,2.72
2024-05-09T22:14:02.256Z,3.65
2024-05-09T22:17:04.830Z,4.47
2024-05-09T22:20:18.077Z,3.63
2024-05-09T22:23:24.507Z,3.00
2024-05-09T22:26:26.703Z,3.00
2024-05-09T22:29:28.880Z,2.60
2024-05-09T22:32:31.298Z,3.37
2024-05-09T22:35:33.564Z,3.40
2024-05-09T22:38:36.736Z,3.38
2024-05-09T22:41:41.046Z,2.50
2024-05-09T22:44:43.229Z,3.00
2024-05-09T22:47:45.983Z,2.50
2024-05-09T22:50:48.654Z,2.63
2024-05-09T22:53:50.957Z,2.50
2024-05-09T22:56:53.648Z,3.00
2024-05-09T22:59:55.854Z,2.53
2024-05-09T23:02:58.109Z,2.70
2024-05-09T23:06:00.534Z,2.43
2024-05-09T23:09:03.074Z,2.95
2024-05-09T23:12:05.780Z,3.40
2024-05-09T23:15:08.221Z,2.53
2024-05-09T23:18:10.746Z,2.70
2024-05-09T23:21:13.161Z,2.80
2024-05-09T23:24:15.342Z,2.60
2024-05-09T23:27:17.783Z,2.63
2024-05-09T23:30:29.215Z,2.77
2024-05-09T23:33:46.124Z,2.85
2024-05-09T23:36:48.568Z,2.80
2024-05-09T23:39:50.825Z,3.20
2024-05-09T23:42:53.008Z,2.92
2024-05-09T23:45:55.454Z,3.13
2024-05-09T23:48:57.905Z,3.05
2024-05-09T23:52:00.287Z,2.80
2024-05-09T23:55:02.629Z,3.40
2024-05-09T23:58:05.105Z,3.33
